sensor_id;sensor_type;location;lat;lon;timestamp;temperature;humidity
65239;SHT30;51827;51.186;6.926;2022-08-11T00:00:36;24.00;55.54
65239;SHT30;51827;51.186;6.926;2022-08-11T00:01:44;24.00;55.50
65239;SHT30;51827;51.186;6.926;2022-08-11T00:02:50;23.98;55.51
65239;SHT30;51827;51.186;6.926;2022-08-11T00:03:54;24.00;55.50
65239;SHT30;51827;51.186;6.926;2022-08-11T00:05:01;23.97;55.50
65239;SHT30;51827;51.186;6.926;2022-08-11T00:06:05;23.98;55.50
65239;SHT30;51827;51.186;6.926;2022-08-11T00:07:05;23.98;55.49
65239;SHT30;51827;51.186;6.926;2022-08-11T00:08:06;24.00;55.48
65239;SHT30;51827;51.186;6.926;2022-08-11T00:09:11;24.01;55.50
65239;SHT30;51827;51.186;6.926;2022-08-11T00:10:15;23.98;55.48
65239;SHT30;51827;51.186;6.926;2022-08-11T00:11:19;23.98;55.49
65239;SHT30;51827;51.186;6.926;2022-08-11T00:12:23;23.98;55.51
65239;SHT30;51827;51.186;6.926;2022-08-11T00:13:35;23.98;55.52
65239;SHT30;51827;51.186;6.926;2022-08-11T00:14:36;23.98;55.46
65239;SHT30;51827;51.186;6.926;2022-08-11T00:15:43;23.98;55.46
65239;SHT30;51827;51.186;6.926;2022-08-11T00:17:58;24.01;55.47
65239;SHT30;51827;51.186;6.926;2022-08-11T00:18:59;24.00;55.51
65239;SHT30;51827;51.186;6.926;2022-08-11T00:20:05;24.00;55.46
65239;SHT30;51827;51.186;6.926;2022-08-11T00:21:07;23.98;55.48
65239;SHT30;51827;51.186;6.926;2022-08-11T00:22:07;24.00;55.47
65239;SHT30;51827;51.186;6.926;2022-08-11T00:23:11;23.98;55.47
65239;SHT30;51827;51.186;6.926;2022-08-11T00:24:11;23.97;55.48
65239;SHT30;51827;51.186;6.926;2022-08-11T00:25:21;24.00;55.44
65239;SHT30;51827;51.186;6.926;2022-08-11T00:26:27;24.00;55.45
65239;SHT30;51827;51.186;6.926;2022-08-11T00:27:35;23.97;55.47
65239;SHT30;51827;51.186;6.926;2022-08-11T00:28:36;23.98;55.50
65239;SHT30;51827;51.186;6.926;2022-08-11T00:29:36;23.98;55.45
65239;SHT30;51827;51.186;6.926;2022-08-11T00:30:38;23.97;55.51
65239;SHT30;51827;51.186;6.926;2022-08-11T00:31:44;23.98;55.47
65239;SHT30;51827;51.186;6.926;2022-08-11T00:32:53;23.97;55.47
65239;SHT30;51827;51.186;6.926;2022-08-11T00:33:55;23.98;55.45
65239;SHT30;51827;51.186;6.926;2022-08-11T00:34:57;23.97;55.47
65239;SHT30;51827;51.186;6.926;2022-08-11T00:35:59;23.98;55.46
65239;SHT30;51827;51.186;6.926;2022-08-11T00:37:15;23.97;55.47
65239;SHT30;51827;51.186;6.926;2022-08-11T00:38:22;23.94;55.45
65239;SHT30;51827;51.186;6.926;2022-08-11T00:39:24;23.97;55.49
65239;SHT30;51827;51.186;6.926;2022-08-11T00:40:35;23.97;55.48
65239;SHT30;51827;51.186;6.926;2022-08-11T00:41:41;23.96;55.48
65239;SHT30;51827;51.186;6.926;2022-08-11T00:45:45;23.94;55.42
65239;SHT30;51827;51.186;6.926;2022-08-11T00:47:08;23.96;55.41
65239;SHT30;51827;51.186;6.926;2022-08-11T00:48:35;23.97;55.44
65239;SHT30;51827;51.186;6.926;2022-08-11T00:55:18;23.96;55.42
65239;SHT30;51827;51.186;6.926;2022-08-11T01:00:00;23.93;55.41
65239;SHT30;51827;51.186;6.926;2022-08-11T01:03:01;23.97;55.46
65239;SHT30;51827;51.186;6.926;2022-08-11T01:05:47;23.96;55.46
65239;SHT30;51827;51.186;6.926;2022-08-11T01:21:25;23.92;55.41
65239;SHT30;51827;51.186;6.926;2022-08-11T01:24:49;23.90;55.41
65239;SHT30;51827;51.186;6.926;2022-08-11T01:35:39;23.93;55.41
65239;SHT30;51827;51.186;6.926;2022-08-11T01:38:34;23.92;55.49
65239;SHT30;51827;51.186;6.926;2022-08-11T01:44:19;23.90;55.40
65239;SHT30;51827;51.186;6.926;2022-08-11T01:47:21;23.92;55.48
65239;SHT30;51827;51.186;6.926;2022-08-11T01:48:29;23.93;55.41
65239;SHT30;51827;51.186;6.926;2022-08-11T01:49:43;23.90;55.40
65239;SHT30;51827;51.186;6.926;2022-08-11T01:51:07;23.92;55.42
65239;SHT30;51827;51.186;6.926;2022-08-11T01:52:22;23.92;55.43
65239;SHT30;51827;51.186;6.926;2022-08-11T01:54:04;23.88;55.45
65239;SHT30;51827;51.186;6.926;2022-08-11T01:57:15;23.88;55.45
65239;SHT30;51827;51.186;6.926;2022-08-11T01:58:28;23.88;55.43
65239;SHT30;51827;51.186;6.926;2022-08-11T01:59:49;23.90;55.50
65239;SHT30;51827;51.186;6.926;2022-08-11T02:02:29;23.90;55.45
65239;SHT30;51827;51.186;6.926;2022-08-11T02:03:46;23.88;55.49
65239;SHT30;51827;51.186;6.926;2022-08-11T02:05:13;23.88;55.47
65239;SHT30;51827;51.186;6.926;2022-08-11T02:08:41;23.88;55.49
65239;SHT30;51827;51.186;6.926;2022-08-11T02:09:55;23.90;55.50
65239;SHT30;51827;51.186;6.926;2022-08-11T02:11:21;23.88;55.46
65239;SHT30;51827;51.186;6.926;2022-08-11T02:13:33;23.85;55.47
65239;SHT30;51827;51.186;6.926;2022-08-11T02:14:58;23.88;55.45
65239;SHT30;51827;51.186;6.926;2022-08-11T02:17:20;23.88;55.47
65239;SHT30;51827;51.186;6.926;2022-08-11T02:18:33;23.88;55.43
65239;SHT30;51827;51.186;6.926;2022-08-11T02:20:51;23.90;55.49
65239;SHT30;51827;51.186;6.926;2022-08-11T02:22:02;23.88;55.45
65239;SHT30;51827;51.186;6.926;2022-08-11T02:24:23;23.87;55.43
65239;SHT30;51827;51.186;6.926;2022-08-11T02:25:39;23.88;55.41
65239;SHT30;51827;51.186;6.926;2022-08-11T02:27:05;23.87;55.47
65239;SHT30;51827;51.186;6.926;2022-08-11T02:28:16;23.88;55.45
65239;SHT30;51827;51.186;6.926;2022-08-11T02:30:36;23.87;55.44
65239;SHT30;51827;51.186;6.926;2022-08-11T02:31:55;23.90;55.41
65239;SHT30;51827;51.186;6.926;2022-08-11T02:33:11;23.85;55.43
65239;SHT30;51827;51.186;6.926;2022-08-11T02:36:08;23.88;55.45
65239;SHT30;51827;51.186;6.926;2022-08-11T02:39:37;23.85;55.45
65239;SHT30;51827;51.186;6.926;2022-08-11T02:41:51;23.85;55.45
65239;SHT30;51827;51.186;6.926;2022-08-11T02:43:05;23.87;55.45
65239;SHT30;51827;51.186;6.926;2022-08-11T02:49:39;23.87;55.47
65239;SHT30;51827;51.186;6.926;2022-08-11T02:52:35;23.83;54.20
65239;SHT30;51827;51.186;6.926;2022-08-11T02:54:02;23.77;54.13
65239;SHT30;51827;51.186;6.926;2022-08-11T02:57:37;23.59;53.42
65239;SHT30;51827;51.186;6.926;2022-08-11T03:00:12;23.43;53.03
65239;SHT30;51827;51.186;6.926;2022-08-11T03:01:17;23.40;53.06
65239;SHT30;51827;51.186;6.926;2022-08-11T03:04:00;23.26;52.94
65239;SHT30;51827;51.186;6.926;2022-08-11T03:06:44;23.22;52.81
65239;SHT30;51827;51.186;6.926;2022-08-11T03:11:48;23.05;52.93
65239;SHT30;51827;51.186;6.926;2022-08-11T03:14:26;23.02;53.14
65239;SHT30;51827;51.186;6.926;2022-08-11T03:15:31;22.98;53.18
65239;SHT30;51827;51.186;6.926;2022-08-11T03:16:42;22.99;53.11
65239;SHT30;51827;51.186;6.926;2022-08-11T03:19:45;22.92;53.21
65239;SHT30;51827;51.186;6.926;2022-08-11T03:20:55;22.89;53.30
65239;SHT30;51827;51.186;6.926;2022-08-11T03:23:34;22.84;53.37
65239;SHT30;51827;51.186;6.926;2022-08-11T03:24:53;22.84;53.36
65239;SHT30;51827;51.186;6.926;2022-08-11T03:29:36;22.72;53.64
65239;SHT30;51827;51.186;6.926;2022-08-11T03:31:50;22.66;53.79
65239;SHT30;51827;51.186;6.926;2022-08-11T03:34:39;22.61;53.95
65239;SHT30;51827;51.186;6.926;2022-08-11T03:36:35;22.58;54.05
65239;SHT30;51827;51.186;6.926;2022-08-11T03:38:21;22.56;54.17
65239;SHT30;51827;51.186;6.926;2022-08-11T03:42:15;22.51;54.40
65239;SHT30;51827;51.186;6.926;2022-08-11T03:45:59;22.48;54.63
65239;SHT30;51827;51.186;6.926;2022-08-11T03:49:24;22.45;54.67
65239;SHT30;51827;51.186;6.926;2022-08-11T03:56:01;22.38;54.73
65239;SHT30;51827;51.186;6.926;2022-08-11T04:03:24;22.31;54.78
65239;SHT30;51827;51.186;6.926;2022-08-11T04:10:28;22.30;54.81
65239;SHT30;51827;51.186;6.926;2022-08-11T04:31:32;22.17;55.08
65239;SHT30;51827;51.186;6.926;2022-08-11T04:37:40;22.18;55.05
65239;SHT30;51827;51.186;6.926;2022-08-11T04:39:03;22.15;55.05
65239;SHT30;51827;51.186;6.926;2022-08-11T04:41:35;22.14;55.12
65239;SHT30;51827;51.186;6.926;2022-08-11T04:43:14;22.15;55.11
65239;SHT30;51827;51.186;6.926;2022-08-11T04:51:54;22.08;55.23
65239;SHT30;51827;51.186;6.926;2022-08-11T04:55:44;22.05;55.30
65239;SHT30;51827;51.186;6.926;2022-08-11T04:57:00;22.01;55.35
65239;SHT30;51827;51.186;6.926;2022-08-11T04:58:34;22.01;55.35
65239;SHT30;51827;51.186;6.926;2022-08-11T05:02:22;22.00;55.31
65239;SHT30;51827;51.186;6.926;2022-08-11T05:04:55;22.02;55.35
65239;SHT30;51827;51.186;6.926;2022-08-11T05:11:02;22.00;55.45
65239;SHT30;51827;51.186;6.926;2022-08-11T05:13:45;22.02;55.62
65239;SHT30;51827;51.186;6.926;2022-08-11T05:14:52;22.02;55.62
65239;SHT30;51827;51.186;6.926;2022-08-11T05:15:55;22.04;55.72
65239;SHT30;51827;51.186;6.926;2022-08-11T05:16:59;22.05;55.69
65239;SHT30;51827;51.186;6.926;2022-08-11T05:18:11;22.04;55.65
65239;SHT30;51827;51.186;6.926;2022-08-11T05:19:18;22.05;55.62
65239;SHT30;51827;51.186;6.926;2022-08-11T05:20:20;22.07;55.59
65239;SHT30;51827;51.186;6.926;2022-08-11T05:21:24;22.10;55.56
65239;SHT30;51827;51.186;6.926;2022-08-11T05:22:27;22.12;55.50
65239;SHT30;51827;51.186;6.926;2022-08-11T05:23:29;22.12;55.48
65239;SHT30;51827;51.186;6.926;2022-08-11T05:24:36;22.15;55.44
65239;SHT30;51827;51.186;6.926;2022-08-11T05:25:43;22.17;55.38
65239;SHT30;51827;51.186;6.926;2022-08-11T05:26:46;22.20;55.32
65239;SHT30;51827;51.186;6.926;2022-08-11T05:28:05;22.22;55.23
65239;SHT30;51827;51.186;6.926;2022-08-11T05:29:26;22.27;55.22
65239;SHT30;51827;51.186;6.926;2022-08-11T05:30:31;22.25;55.18
65239;SHT30;51827;51.186;6.926;2022-08-11T05:31:35;22.31;55.13
65239;SHT30;51827;51.186;6.926;2022-08-11T05:32:38;22.31;55.07
65239;SHT30;51827;51.186;6.926;2022-08-11T05:33:51;22.32;55.09
65239;SHT30;51827;51.186;6.926;2022-08-11T05:34:52;22.34;55.00
65239;SHT30;51827;51.186;6.926;2022-08-11T05:37:32;22.38;54.97
65239;SHT30;51827;51.186;6.926;2022-08-11T05:38:35;22.38;54.94
65239;SHT30;51827;51.186;6.926;2022-08-11T05:39:46;22.38;54.89
65239;SHT30;51827;51.186;6.926;2022-08-11T05:40:51;22.42;54.89
65239;SHT30;51827;51.186;6.926;2022-08-11T05:41:56;22.41;54.87
65239;SHT30;51827;51.186;6.926;2022-08-11T05:43:00;22.45;54.87
65239;SHT30;51827;51.186;6.926;2022-08-11T05:44:02;22.47;54.88
65239;SHT30;51827;51.186;6.926;2022-08-11T05:45:09;22.45;54.82
65239;SHT30;51827;51.186;6.926;2022-08-11T05:46:10;22.45;54.83
65239;SHT30;51827;51.186;6.926;2022-08-11T05:47:11;22.45;54.79
65239;SHT30;51827;51.186;6.926;2022-08-11T05:48:20;22.48;54.78
65239;SHT30;51827;51.186;6.926;2022-08-11T05:49:21;22.48;54.80
65239;SHT30;51827;51.186;6.926;2022-08-11T05:50:22;22.51;54.77
65239;SHT30;51827;51.186;6.926;2022-08-11T05:51:23;22.51;54.80
65239;SHT30;51827;51.186;6.926;2022-08-11T05:52:32;22.52;54.73
65239;SHT30;51827;51.186;6.926;2022-08-11T05:53:33;22.52;54.72
65239;SHT30;51827;51.186;6.926;2022-08-11T05:54:37;22.49;54.72
65239;SHT30;51827;51.186;6.926;2022-08-11T05:55:39;22.52;54.72
65239;SHT30;51827;51.186;6.926;2022-08-11T05:56:58;22.54;54.71
65239;SHT30;51827;51.186;6.926;2022-08-11T05:58:04;22.55;54.70
65239;SHT30;51827;51.186;6.926;2022-08-11T05:59:11;22.55;54.74
65239;SHT30;51827;51.186;6.926;2022-08-11T06:00:13;22.56;54.71
65239;SHT30;51827;51.186;6.926;2022-08-11T06:01:24;22.56;54.71
65239;SHT30;51827;51.186;6.926;2022-08-11T06:02:25;22.58;54.72
65239;SHT30;51827;51.186;6.926;2022-08-11T06:03:28;22.58;54.71
65239;SHT30;51827;51.186;6.926;2022-08-11T06:04:29;22.58;54.73
65239;SHT30;51827;51.186;6.926;2022-08-11T06:05:34;22.58;54.75
65239;SHT30;51827;51.186;6.926;2022-08-11T06:06:36;22.59;54.72
65239;SHT30;51827;51.186;6.926;2022-08-11T06:07:37;22.59;54.70
65239;SHT30;51827;51.186;6.926;2022-08-11T06:08:37;22.64;54.69
65239;SHT30;51827;51.186;6.926;2022-08-11T06:09:48;22.62;54.70
65239;SHT30;51827;51.186;6.926;2022-08-11T06:10:49;22.62;54.71
65239;SHT30;51827;51.186;6.926;2022-08-11T06:11:50;22.64;54.68
65239;SHT30;51827;51.186;6.926;2022-08-11T06:12:54;22.64;54.74
65239;SHT30;51827;51.186;6.926;2022-08-11T06:13:56;22.62;54.69
65239;SHT30;51827;51.186;6.926;2022-08-11T06:15:00;22.64;54.75
65239;SHT30;51827;51.186;6.926;2022-08-11T06:16:01;22.64;54.71
65239;SHT30;51827;51.186;6.926;2022-08-11T06:17:03;22.65;54.71
65239;SHT30;51827;51.186;6.926;2022-08-11T06:18:04;22.64;54.72
65239;SHT30;51827;51.186;6.926;2022-08-11T06:19:04;22.64;54.71
65239;SHT30;51827;51.186;6.926;2022-08-11T06:20:05;22.66;54.71
65239;SHT30;51827;51.186;6.926;2022-08-11T06:21:10;22.66;54.69
65239;SHT30;51827;51.186;6.926;2022-08-11T06:22:11;22.66;54.71
65239;SHT30;51827;51.186;6.926;2022-08-11T06:23:12;22.65;54.72
65239;SHT30;51827;51.186;6.926;2022-08-11T06:24:14;22.69;54.69
65239;SHT30;51827;51.186;6.926;2022-08-11T06:25:15;22.68;54.74
65239;SHT30;51827;51.186;6.926;2022-08-11T06:26:16;22.68;54.75
65239;SHT30;51827;51.186;6.926;2022-08-11T06:27:23;22.66;54.75
65239;SHT30;51827;51.186;6.926;2022-08-11T06:28:32;22.68;54.75
65239;SHT30;51827;51.186;6.926;2022-08-11T06:29:36;22.68;54.73
65239;SHT30;51827;51.186;6.926;2022-08-11T06:30:39;22.68;54.74
65239;SHT30;51827;51.186;6.926;2022-08-11T06:31:40;22.68;54.76
65239;SHT30;51827;51.186;6.926;2022-08-11T06:32:43;22.69;54.71
65239;SHT30;51827;51.186;6.926;2022-08-11T06:37:24;22.72;54.74
65239;SHT30;51827;51.186;6.926;2022-08-11T06:40:07;22.72;54.70
65239;SHT30;51827;51.186;6.926;2022-08-11T06:41:23;22.73;54.72
65239;SHT30;51827;51.186;6.926;2022-08-11T06:45:30;22.73;54.71
65239;SHT30;51827;51.186;6.926;2022-08-11T06:46:34;22.75;54.70
65239;SHT30;51827;51.186;6.926;2022-08-11T06:47:35;22.73;54.70
65239;SHT30;51827;51.186;6.926;2022-08-11T06:48:41;22.75;54.71
65239;SHT30;51827;51.186;6.926;2022-08-11T06:49:44;22.76;54.74
65239;SHT30;51827;51.186;6.926;2022-08-11T06:50:54;22.76;54.74
65239;SHT30;51827;51.186;6.926;2022-08-11T06:51:59;22.75;54.70
65239;SHT30;51827;51.186;6.926;2022-08-11T06:53:01;22.75;54.77
65239;SHT30;51827;51.186;6.926;2022-08-11T06:54:03;22.73;54.73
65239;SHT30;51827;51.186;6.926;2022-08-11T06:55:29;22.76;54.71
65239;SHT30;51827;51.186;6.926;2022-08-11T06:56:31;22.76;54.74
65239;SHT30;51827;51.186;6.926;2022-08-11T06:57:34;22.76;54.72
65239;SHT30;51827;51.186;6.926;2022-08-11T06:58:38;22.76;54.73
65239;SHT30;51827;51.186;6.926;2022-08-11T06:59:39;22.76;54.71
65239;SHT30;51827;51.186;6.926;2022-08-11T07:00:40;22.81;54.69
65239;SHT30;51827;51.186;6.926;2022-08-11T07:01:53;22.78;54.68
65239;SHT30;51827;51.186;6.926;2022-08-11T07:04:07;22.79;54.71
65239;SHT30;51827;51.186;6.926;2022-08-11T07:05:47;22.82;54.74
65239;SHT30;51827;51.186;6.926;2022-08-11T07:07:06;22.82;54.70
65239;SHT30;51827;51.186;6.926;2022-08-11T07:09:36;22.81;54.76
65239;SHT30;51827;51.186;6.926;2022-08-11T07:12:36;22.79;54.70
65239;SHT30;51827;51.186;6.926;2022-08-11T07:13:38;22.81;54.74
65239;SHT30;51827;51.186;6.926;2022-08-11T07:14:48;22.82;54.68
65239;SHT30;51827;51.186;6.926;2022-08-11T07:15:51;22.82;54.74
65239;SHT30;51827;51.186;6.926;2022-08-11T07:16:55;22.82;54.72
65239;SHT30;51827;51.186;6.926;2022-08-11T07:18:01;22.82;54.76
65239;SHT30;51827;51.186;6.926;2022-08-11T07:19:05;22.82;54.73
65239;SHT30;51827;51.186;6.926;2022-08-11T07:20:08;22.82;54.70
65239;SHT30;51827;51.186;6.926;2022-08-11T07:21:29;22.82;54.73
65239;SHT30;51827;51.186;6.926;2022-08-11T07:22:31;22.84;54.75
65239;SHT30;51827;51.186;6.926;2022-08-11T07:23:34;22.84;54.73
65239;SHT30;51827;51.186;6.926;2022-08-11T07:24:43;22.82;54.73
65239;SHT30;51827;51.186;6.926;2022-08-11T07:25:49;22.85;54.75
65239;SHT30;51827;51.186;6.926;2022-08-11T07:26:54;22.84;54.75
65239;SHT30;51827;51.186;6.926;2022-08-11T07:28:10;22.86;54.74
65239;SHT30;51827;51.186;6.926;2022-08-11T07:29:12;22.85;54.73
65239;SHT30;51827;51.186;6.926;2022-08-11T07:30:13;22.86;54.75
65239;SHT30;51827;51.186;6.926;2022-08-11T07:31:16;22.85;54.72
65239;SHT30;51827;51.186;6.926;2022-08-11T07:32:29;22.85;54.75
65239;SHT30;51827;51.186;6.926;2022-08-11T07:33:52;22.88;54.71
65239;SHT30;51827;51.186;6.926;2022-08-11T07:35:03;22.88;54.73
65239;SHT30;51827;51.186;6.926;2022-08-11T07:36:08;22.88;54.70
65239;SHT30;51827;51.186;6.926;2022-08-11T07:37:12;22.88;54.74
65239;SHT30;51827;51.186;6.926;2022-08-11T07:38:22;22.86;54.73
65239;SHT30;51827;51.186;6.926;2022-08-11T07:39:30;22.86;54.72
65239;SHT30;51827;51.186;6.926;2022-08-11T07:40:31;22.86;54.74
65239;SHT30;51827;51.186;6.926;2022-08-11T07:41:33;22.89;54.73
65239;SHT30;51827;51.186;6.926;2022-08-11T07:42:34;22.92;54.70
65239;SHT30;51827;51.186;6.926;2022-08-11T07:43:34;22.89;54.73
65239;SHT30;51827;51.186;6.926;2022-08-11T07:44:35;22.89;54.72
65239;SHT30;51827;51.186;6.926;2022-08-11T07:45:41;22.88;54.73
65239;SHT30;51827;51.186;6.926;2022-08-11T07:46:44;22.89;54.76
65239;SHT30;51827;51.186;6.926;2022-08-11T07:47:45;22.89;54.71
65239;SHT30;51827;51.186;6.926;2022-08-11T07:48:46;22.89;54.71
65239;SHT30;51827;51.186;6.926;2022-08-11T07:49:48;22.89;54.70
65239;SHT30;51827;51.186;6.926;2022-08-11T07:50:51;22.92;54.69
65239;SHT30;51827;51.186;6.926;2022-08-11T07:51:52;22.91;54.77
65239;SHT30;51827;51.186;6.926;2022-08-11T07:52:53;22.92;54.70
65239;SHT30;51827;51.186;6.926;2022-08-11T07:53:53;22.94;54.74
65239;SHT30;51827;51.186;6.926;2022-08-11T07:54:56;22.92;54.73
65239;SHT30;51827;51.186;6.926;2022-08-11T07:55:59;22.92;54.67
65239;SHT30;51827;51.186;6.926;2022-08-11T07:57:02;22.92;54.69
65239;SHT30;51827;51.186;6.926;2022-08-11T07:58:03;22.89;54.67
65239;SHT30;51827;51.186;6.926;2022-08-11T07:59:04;22.94;54.70
65239;SHT30;51827;51.186;6.926;2022-08-11T08:00:06;22.94;54.73
65239;SHT30;51827;51.186;6.926;2022-08-11T08:01:06;22.94;54.69
65239;SHT30;51827;51.186;6.926;2022-08-11T08:02:08;22.94;54.73
65239;SHT30;51827;51.186;6.926;2022-08-11T08:03:09;22.94;54.69
65239;SHT30;51827;51.186;6.926;2022-08-11T08:04:13;22.92;54.66
65239;SHT30;51827;51.186;6.926;2022-08-11T08:05:15;22.95;54.70
65239;SHT30;51827;51.186;6.926;2022-08-11T08:06:16;22.94;54.70
65239;SHT30;51827;51.186;6.926;2022-08-11T08:07:19;22.92;54.70
65239;SHT30;51827;51.186;6.926;2022-08-11T08:08:22;22.95;54.70
65239;SHT30;51827;51.186;6.926;2022-08-11T08:09:24;22.92;54.69
65239;SHT30;51827;51.186;6.926;2022-08-11T08:10:24;22.95;54.70
65239;SHT30;51827;51.186;6.926;2022-08-11T08:11:25;22.95;54.67
65239;SHT30;51827;51.186;6.926;2022-08-11T08:12:26;22.92;54.71
65239;SHT30;51827;51.186;6.926;2022-08-11T08:13:28;22.95;54.73
65239;SHT30;51827;51.186;6.926;2022-08-11T08:14:29;22.94;54.69
65239;SHT30;51827;51.186;6.926;2022-08-11T08:15:30;22.95;54.70
65239;SHT30;51827;51.186;6.926;2022-08-11T08:16:31;22.96;54.67
65239;SHT30;51827;51.186;6.926;2022-08-11T08:17:33;22.96;54.71
65239;SHT30;51827;51.186;6.926;2022-08-11T08:18:35;22.95;54.70
65239;SHT30;51827;51.186;6.926;2022-08-11T08:19:35;22.95;54.71
65239;SHT30;51827;51.186;6.926;2022-08-11T08:20:40;22.96;54.69
65239;SHT30;51827;51.186;6.926;2022-08-11T08:21:44;22.96;54.71
65239;SHT30;51827;51.186;6.926;2022-08-11T08:22:48;22.96;54.75
65239;SHT30;51827;51.186;6.926;2022-08-11T08:23:50;22.96;54.67
65239;SHT30;51827;51.186;6.926;2022-08-11T08:24:50;22.96;54.71
65239;SHT30;51827;51.186;6.926;2022-08-11T08:25:51;22.96;54.68
65239;SHT30;51827;51.186;6.926;2022-08-11T08:26:51;22.99;54.67
65239;SHT30;51827;51.186;6.926;2022-08-11T08:27:54;22.98;54.68
65239;SHT30;51827;51.186;6.926;2022-08-11T08:28:56;22.99;54.64
65239;SHT30;51827;51.186;6.926;2022-08-11T08:29:57;22.95;54.68
65239;SHT30;51827;51.186;6.926;2022-08-11T08:30:57;22.99;54.72
65239;SHT30;51827;51.186;6.926;2022-08-11T08:32:03;22.96;54.70
65239;SHT30;51827;51.186;6.926;2022-08-11T08:33:03;22.98;54.70
65239;SHT30;51827;51.186;6.926;2022-08-11T08:34:04;22.98;54.67
65239;SHT30;51827;51.186;6.926;2022-08-11T08:35:05;23.00;54.68
65239;SHT30;51827;51.186;6.926;2022-08-11T08:36:06;22.99;54.68
65239;SHT30;51827;51.186;6.926;2022-08-11T08:37:07;22.98;54.64
65239;SHT30;51827;51.186;6.926;2022-08-11T08:38:07;22.98;54.66
65239;SHT30;51827;51.186;6.926;2022-08-11T08:39:07;22.99;54.68
65239;SHT30;51827;51.186;6.926;2022-08-11T08:40:09;23.00;54.71
65239;SHT30;51827;51.186;6.926;2022-08-11T08:41:10;22.99;54.64
65239;SHT30;51827;51.186;6.926;2022-08-11T08:42:11;23.03;54.67
65239;SHT30;51827;51.186;6.926;2022-08-11T08:43:14;23.00;54.68
65239;SHT30;51827;51.186;6.926;2022-08-11T08:44:16;23.00;54.68
65239;SHT30;51827;51.186;6.926;2022-08-11T08:45:18;23.02;54.69
65239;SHT30;51827;51.186;6.926;2022-08-11T08:46:22;23.00;54.66
65239;SHT30;51827;51.186;6.926;2022-08-11T08:47:25;23.03;54.68
65239;SHT30;51827;51.186;6.926;2022-08-11T08:48:29;22.99;54.68
65239;SHT30;51827;51.186;6.926;2022-08-11T08:49:35;23.03;54.69
65239;SHT30;51827;51.186;6.926;2022-08-11T08:50:41;23.02;54.63
65239;SHT30;51827;51.186;6.926;2022-08-11T08:51:43;23.02;54.64
65239;SHT30;51827;51.186;6.926;2022-08-11T08:52:51;23.05;54.63
65239;SHT30;51827;51.186;6.926;2022-08-11T08:53:53;23.05;54.70
65239;SHT30;51827;51.186;6.926;2022-08-11T08:54:54;23.03;54.68
65239;SHT30;51827;51.186;6.926;2022-08-11T08:55:57;23.06;54.66
65239;SHT30;51827;51.186;6.926;2022-08-11T08:56:59;23.03;54.65
65239;SHT30;51827;51.186;6.926;2022-08-11T08:57:59;23.03;54.66
65239;SHT30;51827;51.186;6.926;2022-08-11T08:59:01;23.05;54.62
65239;SHT30;51827;51.186;6.926;2022-08-11T09:00:04;23.06;54.63
65239;SHT30;51827;51.186;6.926;2022-08-11T09:01:05;23.05;54.67
65239;SHT30;51827;51.186;6.926;2022-08-11T09:02:08;23.05;54.66
65239;SHT30;51827;51.186;6.926;2022-08-11T09:03:10;23.03;54.62
65239;SHT30;51827;51.186;6.926;2022-08-11T09:04:12;23.05;54.61
65239;SHT30;51827;51.186;6.926;2022-08-11T09:05:16;23.03;54.66
65239;SHT30;51827;51.186;6.926;2022-08-11T09:06:16;23.05;54.66
65239;SHT30;51827;51.186;6.926;2022-08-11T09:07:19;23.05;54.66
65239;SHT30;51827;51.186;6.926;2022-08-11T09:08:22;23.06;54.65
65239;SHT30;51827;51.186;6.926;2022-08-11T09:09:23;23.08;54.65
65239;SHT30;51827;51.186;6.926;2022-08-11T09:10:24;23.06;54.64
65239;SHT30;51827;51.186;6.926;2022-08-11T09:11:24;23.08;54.64
65239;SHT30;51827;51.186;6.926;2022-08-11T09:12:30;23.06;54.64
65239;SHT30;51827;51.186;6.926;2022-08-11T09:13:32;23.06;54.62
65239;SHT30;51827;51.186;6.926;2022-08-11T09:14:37;23.05;54.61
65239;SHT30;51827;51.186;6.926;2022-08-11T09:15:38;23.08;54.65
65239;SHT30;51827;51.186;6.926;2022-08-11T09:16:39;23.09;54.62
65239;SHT30;51827;51.186;6.926;2022-08-11T09:18:09;23.09;54.60
65239;SHT30;51827;51.186;6.926;2022-08-11T09:19:13;23.06;54.64
65239;SHT30;51827;51.186;6.926;2022-08-11T09:21:18;23.10;54.64
65239;SHT30;51827;51.186;6.926;2022-08-11T09:22:19;23.10;54.60
65239;SHT30;51827;51.186;6.926;2022-08-11T09:23:19;23.09;54.59
65239;SHT30;51827;51.186;6.926;2022-08-11T09:24:20;23.10;54.64
65239;SHT30;51827;51.186;6.926;2022-08-11T09:25:21;23.10;54.64
65239;SHT30;51827;51.186;6.926;2022-08-11T09:26:22;23.09;54.60
65239;SHT30;51827;51.186;6.926;2022-08-11T09:27:22;23.09;54.62
65239;SHT30;51827;51.186;6.926;2022-08-11T09:28:24;23.10;54.60
65239;SHT30;51827;51.186;6.926;2022-08-11T09:29:28;23.12;54.61
65239;SHT30;51827;51.186;6.926;2022-08-11T09:30:28;23.10;54.59
65239;SHT30;51827;51.186;6.926;2022-08-11T09:31:32;23.10;54.62
65239;SHT30;51827;51.186;6.926;2022-08-11T09:32:34;23.10;54.60
65239;SHT30;51827;51.186;6.926;2022-08-11T09:33:35;23.12;54.60
65239;SHT30;51827;51.186;6.926;2022-08-11T09:34:36;23.15;54.64
65239;SHT30;51827;51.186;6.926;2022-08-11T09:35:38;23.10;54.57
65239;SHT30;51827;51.186;6.926;2022-08-11T09:36:40;23.12;54.64
65239;SHT30;51827;51.186;6.926;2022-08-11T09:37:42;23.12;54.58
65239;SHT30;51827;51.186;6.926;2022-08-11T09:38:43;23.10;54.61
65239;SHT30;51827;51.186;6.926;2022-08-11T09:39:44;23.13;54.58
65239;SHT30;51827;51.186;6.926;2022-08-11T09:40:46;23.12;54.58
65239;SHT30;51827;51.186;6.926;2022-08-11T09:41:47;23.13;54.58
65239;SHT30;51827;51.186;6.926;2022-08-11T09:42:48;23.13;54.60
65239;SHT30;51827;51.186;6.926;2022-08-11T09:43:49;23.15;54.61
65239;SHT30;51827;51.186;6.926;2022-08-11T09:44:50;23.15;54.56
65239;SHT30;51827;51.186;6.926;2022-08-11T09:45:52;23.13;54.58
65239;SHT30;51827;51.186;6.926;2022-08-11T09:46:57;23.15;54.56
65239;SHT30;51827;51.186;6.926;2022-08-11T09:47:58;23.16;54.57
65239;SHT30;51827;51.186;6.926;2022-08-11T09:49:00;23.15;54.56
65239;SHT30;51827;51.186;6.926;2022-08-11T09:50:02;23.15;54.57
65239;SHT30;51827;51.186;6.926;2022-08-11T09:51:03;23.15;54.60
65239;SHT30;51827;51.186;6.926;2022-08-11T09:52:04;23.15;54.60
65239;SHT30;51827;51.186;6.926;2022-08-11T09:53:05;23.15;54.57
65239;SHT30;51827;51.186;6.926;2022-08-11T09:54:05;23.13;54.55
65239;SHT30;51827;51.186;6.926;2022-08-11T09:55:06;23.19;54.62
65239;SHT30;51827;51.186;6.926;2022-08-11T09:56:18;23.18;54.58
65239;SHT30;51827;51.186;6.926;2022-08-11T09:57:21;23.16;54.57
65239;SHT30;51827;51.186;6.926;2022-08-11T09:58:21;23.18;54.56
65239;SHT30;51827;51.186;6.926;2022-08-11T09:59:22;23.13;54.56
65239;SHT30;51827;51.186;6.926;2022-08-11T10:00:28;23.16;54.58
65239;SHT30;51827;51.186;6.926;2022-08-11T10:01:32;23.18;54.54
65239;SHT30;51827;51.186;6.926;2022-08-11T10:02:39;23.18;54.53